OITK  Khoy  Airport

Khoy, Iran

Add Bookmark
ICAO OITK
IATA KHY
Type Airport
Status Operational
Latitude
38° 25' 39" N
38.427502
Longitude
44° 58' 24" E
44.973598
Local (DST + 5) UTC (GMT + 4)
Sep 3, 2015 08:58 Sep 3, 2015 04:28
Sunrise-Sunset Local UTC
Begin Civil Twilight 06:32 02:02
Sunrise 06:59 02:29
Sunset 07:59 15:29
End Civil Twilight 08:26 15:56
VFR
VFR
MVFR
MVFR
IFR
IFR
LIFR
LIFR
Unknown
Unavailable

Current Weather

METAR Observed VFR
OITK 021530Z 31004KT 9999 FEW040 25/11 Q1017 Wed, Sep 2, 2015 @ 15:30 UTC
(12 Hours, 58 Minutes ago)
Visual Flight Rules
Wind Visibility Clouds Conditions
310° at 4 knots (7 kph) 10 km or more
  • Few at 4,000 ft AGL
  • No significant weather
Temperatures Readings Precipitation
Current Temp
25°C
77°F
Dewpoint
11°C
52°F
Humidity 42%
Altimeter 30.03" Hg
Sea Level Pressure 1,017 mb
Field Elevation
1,107 m
3,632 ft
None Recorded
-
-

CheckWX.com is intended as a tool to help pilots better visualize weather data. It is not intended as a substitute for an official weather briefing obtained from a Flight Service Station. CheckWX.com does not meet the FAA requirements for an official pre-flight weather briefing. Therefore, it's important that pilots still call and obtain an official FSS pre-flight weather briefing.

© 2007-2015 CheckWX.com
04:28:33 UTC